Time;durP1;ratioP1;P1;durP2;ratioP2;P2;SDS_P1;SDS_P2;PMS_P1;PMS_P2;Temp;Humidity;BMP_temperature;BMP_pressure;BME280_temperature;BME280_humidity;BME280_pressure;Samples;Min_cycle;Max_cycle;Signal;HPM_P1;HPM_P2
2024/03/01 00:00:14;;;;;;;62.60;41.10;;;;;;;7.24;100.00;99291.01;451555;1256;139284;-64
2024/03/01 00:10:20;;;;;;;58.90;36.50;;;;;;;7.30;100.00;99281.80;451272;1254;139221;-65
2024/03/01 00:20:26;;;;;;;65.40;40.60;;;;;;;7.34;100.00;99274.63;451382;1254;139870;-65
2024/03/01 00:30:32;;;;;;;65.70;40.60;;;;;;;7.38;100.00;99266.75;451746;1255;140189;-63
2024/03/01 00:40:38;;;;;;;64.00;39.40;;;;;;;7.42;100.00;99259.19;451528;1256;139174;-64
2024/03/01 00:50:44;;;;;;;62.70;38.60;;;;;;;7.45;100.00;99246.83;451757;1253;140497;-62
2024/03/01 01:00:50;;;;;;;63.30;40.30;;;;;;;7.45;100.00;99240.73;452082;1254;139312;-64
2024/03/01 01:10:56;;;;;;;64.30;43.10;;;;;;;7.41;100.00;99237.80;451919;1253;139493;-62
2024/03/01 01:21:03;;;;;;;66.80;41.80;;;;;;;7.39;100.00;99233.91;451806;1254;140245;-63
2024/03/01 01:31:11;;;;;;;68.30;44.60;;;;;;;7.34;100.00;99225.88;452069;1254;139746;-65
2024/03/01 01:41:17;;;;;;;59.90;39.00;;;;;;;7.26;100.00;99216.92;451610;1254;140113;-65
2024/03/01 01:51:24;;;;;;;74.40;45.50;;;;;;;7.15;100.00;99200.63;451835;1252;140439;-65
2024/03/01 02:01:30;;;;;;;67.90;44.10;;;;;;;7.06;100.00;99179.57;452002;1254;140657;-66
2024/03/01 02:11:38;;;;;;;67.00;44.80;;;;;;;7.06;100.00;99167.70;452087;1254;139344;-66
2024/03/01 02:21:54;;;;;;;70.90;45.90;;;;;;;7.08;100.00;99162.00;451952;1254;139334;-66
2024/03/01 02:32:00;;;;;;;60.80;44.70;;;;;;;7.06;100.00;99153.44;451810;1253;139969;-64
2024/03/01 02:42:07;;;;;;;68.60;47.40;;;;;;;7.03;100.00;99137.61;452012;1253;141576;-64
2024/03/01 02:52:15;;;;;;;70.80;46.30;;;;;;;6.97;100.00;99119.66;451908;1253;139790;-64
2024/03/01 03:02:23;;;;;;;74.30;50.60;;;;;;;6.93;100.00;99110.48;451833;1253;139555;-64
2024/03/01 03:12:29;;;;;;;66.20;42.30;;;;;;;6.92;100.00;99100.11;451894;1252;140793;-63
2024/03/01 03:22:39;;;;;;;62.10;42.10;;;;;;;6.91;100.00;99096.34;451882;1253;139923;-64
2024/03/01 03:32:45;;;;;;;72.80;46.30;;;;;;;6.90;100.00;99090.11;451790;1252;139837;-66
2024/03/01 03:42:51;;;;;;;62.10;44.50;;;;;;;6.89;100.00;99091.21;451888;1252;139697;-66
2024/03/01 03:52:57;;;;;;;60.70;44.30;;;;;;;6.86;100.00;99089.48;451766;1252;139779;-63
2024/03/01 04:03:04;;;;;;;73.70;49.80;;;;;;;6.84;100.00;99086.09;451643;1253;140673;-63
2024/03/01 05:12:18;;;;;;;68.20;46.60;;;;;;;6.88;100.00;99067.63;451841;1252;139168;-63
2024/03/01 05:22:24;;;;;;;81.10;51.00;;;;;;;6.88;100.00;99067.63;451536;1253;139561;-65
2024/03/01 05:32:30;;;;;;;73.90;50.70;;;;;;;6.85;100.00;99070.89;451692;1252;139454;-64
2024/03/01 05:42:37;;;;;;;73.30;51.10;;;;;;;6.87;100.00;99081.42;451948;1252;139349;-64
2024/03/01 05:52:44;;;;;;;65.60;46.30;;;;;;;6.90;100.00;99082.62;451755;1252;139637;-65
2024/03/01 06:02:49;;;;;;;;;;;;;;;6.98;100.00;99082.50;451747;1252;139315;-65
2024/03/01 06:12:57;;;;;;;73.60;45.50;;;;;;;7.11;100.00;99088.37;451942;1252;125875;-64
2024/03/01 06:23:05;;;;;;;70.20;46.30;;;;;;;7.20;100.00;99094.48;451717;1252;139788;-63
2024/03/01 06:33:13;;;;;;;64.70;44.80;;;;;;;7.23;100.00;99089.47;451392;1252;140817;-77
2024/03/01 06:43:20;;;;;;;75.00;50.00;;;;;;;7.24;100.00;99093.54;447715;1252;5102864;-72
2024/03/01 06:53:26;;;;;;;67.20;44.70;;;;;;;7.34;100.00;99085.31;451580;1252;143059;-70
2024/03/01 07:03:36;;;;;;;68.60;44.70;;;;;;;7.55;100.00;99077.67;451546;1252;140598;-60
2024/03/01 07:13:42;;;;;;;70.30;45.20;;;;;;;7.71;100.00;99077.04;451644;1252;139889;-60
2024/03/01 07:23:48;;;;;;;62.60;44.40;;;;;;;7.77;100.00;99079.65;451663;1252;140435;-57
2024/03/01 07:33:55;;;;;;;60.00;43.10;;;;;;;7.92;100.00;99067.11;451634;1253;139653;-68
2024/03/01 07:44:01;;;;;;;63.90;43.40;;;;;;;8.03;100.00;99077.92;451963;1252;140252;-72
2024/03/01 07:54:09;;;;;;;61.60;42.90;;;;;;;8.14;100.00;99081.42;451893;1252;139677;-79
2024/03/01 08:04:16;;;;;;;67.30;46.70;;;;;;;8.29;100.00;99071.27;451742;1252;140515;-72
2024/03/01 08:14:27;;;;;;;60.60;42.30;;;;;;;8.43;100.00;99054.03;451869;1252;139877;-70
2024/03/01 08:24:35;;;;;;;57.90;42.60;;;;;;;8.69;100.00;99046.06;451912;1252;139328;-60
2024/03/01 08:34:49;;;;;;;53.80;41.50;;;;;;;9.01;100.00;99029.52;451766;1252;139600;-59
2024/03/01 08:44:59;;;;;;;57.40;40.40;;;;;;;9.41;100.00;99024.78;451665;1252;140427;-58
2024/03/01 08:55:43;;;;;;;59.20;42.00;;;;;;;9.69;100.00;99022.33;451888;1252;139450;-58
2024/03/01 09:05:50;;;;;;;53.20;40.40;;;;;;;10.02;100.00;99010.80;451647;1252;140415;-61
2024/03/01 09:15:57;;;;;;;54.80;39.30;;;;;;;10.12;100.00;99015.02;451735;1252;142006;-58
2024/03/01 09:26:07;;;;;;;56.00;40.60;;;;;;;10.04;100.00;99019.77;452097;1252;139940;-77
2024/03/01 09:36:19;;;;;;;52.70;39.40;;;;;;;10.22;100.00;99003.08;451914;1252;140057;-71
2024/03/01 09:46:33;;;;;;;50.80;38.40;;;;;;;10.71;100.00;98977.35;451784;1252;140182;-79
2024/03/01 09:56:54;;;;;;;52.40;39.40;;;;;;;11.30;100.00;98976.80;451572;1252;140130;-74
2024/03/01 10:07:09;;;;;;;45.70;35.90;;;;;;;11.93;100.00;98989.68;451635;1252;141389;-65
2024/03/01 10:17:26;;;;;;;42.00;33.90;;;;;;;12.57;100.00;99001.92;451549;1252;140675;-61
2024/03/01 10:27:37;;;;;;;41.30;33.60;;;;;;;12.90;100.00;98992.64;451637;1252;140096;-68
2024/03/01 10:37:59;;;;;;;47.10;35.60;;;;;;;12.75;100.00;98981.67;451743;1252;141172;-65
2024/03/01 10:48:06;;;;;;;41.60;33.80;;;;;;;12.38;100.00;98990.65;451756;1252;140022;-74
2024/03/01 10:58:17;;;;;;;46.10;34.80;;;;;;;12.52;100.00;98995.36;451756;1252;139895;-70
2024/03/01 11:08:42;;;;;;;43.20;33.40;;;;;;;12.79;100.00;98998.88;451743;1252;140291;-69
2024/03/01 11:18:54;;;;;;;35.90;29.00;;;;;;;12.92;100.00;98995.26;452041;1253;139884;-62
2024/03/01 11:29:12;;;;;;;42.30;32.80;;;;;;;12.71;100.00;98982.77;451769;1253;140167;-66
2024/03/01 11:39:23;;;;;;;;;;;;;;;12.50;100.00;98961.08;451833;1253;139740;-62
2024/03/01 11:49:47;;;;;;;42.40;33.00;;;;;;;12.41;100.00;98950.44;452026;1252;125757;-63
2024/03/01 12:00:11;;;;;;;42.10;30.80;;;;;;;12.81;100.00;98939.41;451913;1253;140676;-67
2024/03/01 12:10:28;;;;;;;46.60;28.90;;;;;;;12.96;100.00;98914.08;451891;1252;140180;-67
2024/03/01 12:20:41;;;;;;;37.60;29.00;;;;;;;12.90;100.00;98900.55;451668;1252;140132;-70
2024/03/01 12:31:03;;;;;;;36.40;29.30;;;;;;;12.93;100.00;98918.58;451930;1253;139714;-64
2024/03/01 12:41:29;;;;;;;37.00;29.60;;;;;;;12.94;100.00;98928.14;451795;1252;139611;-66
2024/03/01 12:51:41;;;;;;;35.00;29.00;;;;;;;12.71;100.00;98929.16;451799;1252;139771;-62
2024/03/01 13:02:04;;;;;;;41.00;32.10;;;;;;;12.63;100.00;98908.59;451833;1253;140061;-59
2024/03/01 13:12:20;;;;;;;40.00;32.20;;;;;;;12.58;100.00;98909.50;451814;1253;139666;-67
2024/03/01 13:22:29;;;;;;;41.60;31.80;;;;;;;12.54;100.00;98915.28;451775;1255;139543;-64
2024/03/01 13:32:37;;;;;;;33.30;28.60;;;;;;;12.48;100.00;98928.27;451993;1253;139770;-59
2024/03/01 13:42:50;;;;;;;44.10;32.10;;;;;;;12.36;100.00;98913.63;452010;1253;138969;-61
2024/03/01 13:53:00;;;;;;;45.50;33.90;;;;;;;12.21;100.00;98915.89;451965;1253;140484;-65
2024/03/01 14:03:06;;;;;;;36.40;29.50;;;;;;;12.00;100.00;98912.27;451829;1253;140076;-62
2024/03/01 14:13:13;;;;;;;38.80;33.30;;;;;;;11.91;100.00;98913.53;451970;1253;139665;-58
2024/03/01 14:23:20;;;;;;;46.60;32.60;;;;;;;11.79;100.00;98908.15;451919;1253;139606;-70
2024/03/01 14:33:27;;;;;;;41.60;32.30;;;;;;;11.73;100.00;98905.65;451535;1253;139690;-71
2024/03/01 14:43:45;;;;;;;41.60;31.90;;;;;;;11.57;100.00;98899.67;451928;1252;140419;-64
2024/03/01 14:53:54;;;;;;;42.10;32.60;;;;;;;11.37;100.00;98897.57;451707;1253;139874;-65
2024/03/01 15:04:01;;;;;;;40.50;31.50;;;;;;;11.23;100.00;98893.78;451731;1253;140011;-62
2024/03/01 15:14:14;;;;;;;46.20;33.40;;;;;;;11.08;100.00;98918.92;452071;1252;140113;-58
2024/03/01 15:24:22;;;;;;;47.50;35.20;;;;;;;10.74;100.00;98920.27;451928;1253;139665;-60
2024/03/01 15:34:28;;;;;;;39.40;29.80;;;;;;;10.34;100.00;98922.63;451842;1253;140154;-61
2024/03/01 15:44:34;;;;;;;53.10;33.80;;;;;;;10.07;100.00;98923.36;451947;1253;139627;-60
2024/03/01 15:54:41;;;;;;;53.00;37.00;;;;;;;9.80;100.00;98933.63;451966;1253;139799;-62
2024/03/01 16:04:47;;;;;;;45.30;33.50;;;;;;;9.54;100.00;98937.80;451818;1252;140991;-61
2024/03/01 16:14:54;;;;;;;42.80;34.30;;;;;;;9.28;100.00;98929.60;451715;1253;139548;-61
2024/03/01 16:25:00;;;;;;;40.60;32.60;;;;;;;9.08;100.00;98919.23;451819;1254;139490;-62
2024/03/01 16:35:59;;;;;;;47.50;34.20;;;;;;;8.95;100.00;98945.05;451624;1254;140030;-60
2024/03/01 16:46:10;;;;;;;49.00;35.10;;;;;;;8.84;100.00;98950.52;451734;1256;140793;-65
2024/03/01 16:56:16;;;;;;;53.10;35.40;;;;;;;8.74;100.00;98952.96;451704;1254;139669;-61
2024/03/01 17:06:23;;;;;;;44.10;31.10;;;;;;;8.67;100.00;98961.09;451591;1254;139435;-61
2024/03/01 17:16:32;;;;;;;47.50;31.20;;;;;;;8.60;100.00;98966.95;451619;1253;141025;-62
2024/03/01 17:26:38;;;;;;;45.60;31.50;;;;;;;8.54;100.00;98973.23;451678;1256;140841;-62
2024/03/01 17:36:44;;;;;;;41.30;29.10;;;;;;;8.51;100.00;98984.07;451753;1253;140523;-70
2024/03/01 17:46:50;;;;;;;43.50;31.30;;;;;;;8.45;100.00;98980.60;451704;1253;140331;-71
2024/03/01 17:56:56;;;;;;;45.90;32.60;;;;;;;8.36;100.00;98977.85;451654;1254;140843;-66
2024/03/01 18:07:02;;;;;;;42.60;29.60;;;;;;;8.26;100.00;98980.74;451694;1253;139381;-64
2024/03/01 18:17:08;;;;;;;45.10;31.90;;;;;;;8.19;100.00;98992.71;451680;1253;139488;-72
2024/03/01 18:27:14;;;;;;;39.30;28.60;;;;;;;8.12;100.00;99005.05;451695;1254;139900;-73
2024/03/01 18:37:21;;;;;;;41.20;29.60;;;;;;;8.04;100.00;99000.48;451774;1254;139381;-63
2024/03/01 18:47:28;;;;;;;48.60;31.10;;;;;;;7.95;100.00;99003.96;451387;1254;294189;-64
2024/03/01 18:57:36;;;;;;;40.30;28.70;;;;;;;7.86;100.00;99004.71;451578;1254;139813;-59
2024/03/01 19:07:43;;;;;;;43.10;30.50;;;;;;;7.75;100.00;99013.02;451734;1254;139870;-63
2024/03/01 19:17:49;;;;;;;45.80;30.50;;;;;;;7.64;100.00;99013.53;451762;1253;139939;-65
2024/03/01 19:27:56;;;;;;;43.90;32.40;;;;;;;7.52;100.00;99015.30;451779;1253;139895;-72
2024/03/01 19:38:02;;;;;;;41.00;31.30;;;;;;;7.40;100.00;99010.45;451962;1253;140302;-70
2024/03/01 19:48:09;;;;;;;46.00;33.20;;;;;;;7.27;100.00;99013.13;451841;1253;139870;-74
2024/03/01 19:58:15;;;;;;;51.00;34.80;;;;;;;7.15;100.00;99016.46;451798;1253;139743;-86
2024/03/01 20:08:24;;;;;;;46.80;32.90;;;;;;;7.06;100.00;99011.09;451824;1253;140424;-61
2024/03/01 20:18:30;;;;;;;49.60;34.70;;;;;;;7.00;100.00;98999.05;451849;1253;139569;-61
2024/03/01 20:28:36;;;;;;;57.20;36.30;;;;;;;6.94;100.00;98998.88;451768;1252;139417;-66
2024/03/01 20:38:42;;;;;;;59.70;39.40;;;;;;;6.87;100.00;99007.30;451793;1252;140547;-64
2024/03/01 20:48:48;;;;;;;56.00;37.90;;;;;;;6.80;100.00;99006.15;451983;1252;139545;-59
2024/03/01 20:58:54;;;;;;;52.50;37.10;;;;;;;6.71;100.00;99006.29;451734;1252;140318;-60
2024/03/01 21:09:04;;;;;;;51.50;37.20;;;;;;;6.65;100.00;99010.62;451716;1253;139715;-71
2024/03/01 21:19:08;;;;;;;;;;;;;;;6.60;100.00;99010.02;451874;1252;139426;-67
2024/03/01 21:29:14;;;;;;;59.50;37.80;;;;;;;6.55;100.00;99006.85;451822;1252;125474;-68
2024/03/01 21:39:20;;;;;;;49.50;35.70;;;;;;;6.48;100.00;98996.81;451726;1252;139639;-69
2024/03/01 21:49:26;;;;;;;55.10;40.60;;;;;;;6.37;100.00;98992.67;451794;1253;139375;-59
2024/03/01 21:59:33;;;;;;;51.70;36.70;;;;;;;6.28;100.00;98991.11;451861;1252;139619;-61
2024/03/01 22:09:39;;;;;;;49.40;36.00;;;;;;;6.23;100.00;98991.91;451794;1252;139742;-59
2024/03/01 22:19:45;;;;;;;52.20;34.30;;;;;;;6.14;100.00;98987.02;451827;1252;140392;-63
2024/03/01 22:29:51;;;;;;;48.80;34.50;;;;;;;6.05;100.00;98979.17;451759;1252;139195;-63
2024/03/01 22:39:58;;;;;;;43.60;32.20;;;;;;;5.93;100.00;98979.09;451786;1252;140203;-64
2024/03/01 22:50:06;;;;;;;47.70;33.50;;;;;;;5.74;100.00;98970.39;451769;1252;140283;-63
2024/03/01 23:00:20;;;;;;;45.30;33.20;;;;;;;5.61;100.00;98976.44;451760;1252;142415;-67
2024/03/01 23:10:34;;;;;;;41.40;28.00;;;;;;;5.53;100.00;98980.86;451877;1252;140152;-67
2024/03/01 23:20:42;;;;;;;37.70;27.80;;;;;;;5.47;100.00;98982.23;451746;1252;141828;-68
2024/03/01 23:30:48;;;;;;;40.00;27.70;;;;;;;5.52;100.00;98978.34;451842;1252;139838;-69
2024/03/01 23:40:56;;;;;;;39.40;28.20;;;;;;;5.63;100.00;98965.59;451721;1252;139298;-68
2024/03/01 23:51:02;;;;;;;34.60;26.60;;;;;;;5.73;100.00;98958.63;451848;1252;139705;-68
